sensor_id;sensor_type;location;lat;lon;timestamp;P1;durP1;ratioP1;P2;durP2;ratioP2
8353;SDS011;4656;48.090;11.498;2024-03-08T00:01:59;23.10;;;12.00;;
8353;SDS011;4656;48.090;11.498;2024-03-08T00:04:00;21.20;;;12.10;;
8353;SDS011;4656;48.090;11.498;2024-03-08T00:06:03;19.55;;;11.07;;
8353;SDS011;4656;48.090;11.498;2024-03-08T00:08:06;21.15;;;11.68;;
8353;SDS011;4656;48.090;11.498;2024-03-08T00:10:10;21.90;;;11.45;;
8353;SDS011;4656;48.090;11.498;2024-03-08T00:12:12;21.00;;;11.48;;
8353;SDS011;4656;48.090;11.498;2024-03-08T00:14:14;23.10;;;12.32;;
8353;SDS011;4656;48.090;11.498;2024-03-08T00:16:18;22.65;;;13.02;;
8353;SDS011;4656;48.090;11.498;2024-03-08T00:18:20;21.15;;;12.10;;
8353;SDS011;4656;48.090;11.498;2024-03-08T00:20:22;22.15;;;11.68;;
8353;SDS011;4656;48.090;11.498;2024-03-08T00:22:24;18.33;;;10.77;;
8353;SDS011;4656;48.090;11.498;2024-03-08T00:24:26;19.15;;;10.93;;
8353;SDS011;4656;48.090;11.498;2024-03-08T00:26:29;21.48;;;11.68;;
8353;SDS011;4656;48.090;11.498;2024-03-08T00:28:31;20.55;;;11.02;;
8353;SDS011;4656;48.090;11.498;2024-03-08T00:30:34;19.05;;;11.23;;
8353;SDS011;4656;48.090;11.498;2024-03-08T00:32:39;22.50;;;12.48;;
8353;SDS011;4656;48.090;11.498;2024-03-08T00:34:41;18.77;;;11.35;;
8353;SDS011;4656;48.090;11.498;2024-03-08T00:36:43;18.40;;;10.75;;
8353;SDS011;4656;48.090;11.498;2024-03-08T00:38:44;20.00;;;11.88;;
8353;SDS011;4656;48.090;11.498;2024-03-08T00:40:47;21.30;;;11.90;;
8353;SDS011;4656;48.090;11.498;2024-03-08T00:42:49;21.17;;;11.32;;
8353;SDS011;4656;48.090;11.498;2024-03-08T00:44:53;20.13;;;10.90;;
8353;SDS011;4656;48.090;11.498;2024-03-08T00:46:55;20.17;;;11.68;;
8353;SDS011;4656;48.090;11.498;2024-03-08T00:49:00;19.27;;;11.35;;
8353;SDS011;4656;48.090;11.498;2024-03-08T00:51:02;21.02;;;11.73;;
8353;SDS011;4656;48.090;11.498;2024-03-08T00:53:04;18.83;;;11.35;;
8353;SDS011;4656;48.090;11.498;2024-03-08T00:55:06;19.07;;;11.10;;
8353;SDS011;4656;48.090;11.498;2024-03-08T00:57:10;21.25;;;11.40;;
8353;SDS011;4656;48.090;11.498;2024-03-08T00:59:12;19.20;;;11.07;;
8353;SDS011;4656;48.090;11.498;2024-03-08T01:01:15;16.80;;;10.63;;
8353;SDS011;4656;48.090;11.498;2024-03-08T01:03:17;19.00;;;10.85;;
8353;SDS011;4656;48.090;11.498;2024-03-08T01:05:21;20.17;;;11.00;;
8353;SDS011;4656;48.090;11.498;2024-03-08T01:07:24;19.43;;;10.83;;
8353;SDS011;4656;48.090;11.498;2024-03-08T01:09:26;22.10;;;11.45;;
8353;SDS011;4656;48.090;11.498;2024-03-08T01:11:28;20.00;;;11.48;;
8353;SDS011;4656;48.090;11.498;2024-03-08T01:13:30;21.05;;;11.43;;
8353;SDS011;4656;48.090;11.498;2024-03-08T01:15:34;19.95;;;11.68;;
8353;SDS011;4656;48.090;11.498;2024-03-08T01:17:36;22.33;;;11.00;;
8353;SDS011;4656;48.090;11.498;2024-03-08T01:19:38;20.80;;;11.20;;
8353;SDS011;4656;48.090;11.498;2024-03-08T01:21:42;23.58;;;12.25;;
8353;SDS011;4656;48.090;11.498;2024-03-08T01:23:44;21.00;;;11.68;;
8353;SDS011;4656;48.090;11.498;2024-03-08T01:25:45;19.02;;;11.10;;
8353;SDS011;4656;48.090;11.498;2024-03-08T01:27:56;21.65;;;11.57;;
8353;SDS011;4656;48.090;11.498;2024-03-08T01:29:58;21.25;;;11.77;;
8353;SDS011;4656;48.090;11.498;2024-03-08T01:32:00;18.73;;;11.13;;
8353;SDS011;4656;48.090;11.498;2024-03-08T01:34:02;18.95;;;10.70;;
8353;SDS011;4656;48.090;11.498;2024-03-08T01:36:05;18.17;;;11.05;;
8353;SDS011;4656;48.090;11.498;2024-03-08T01:38:08;19.83;;;11.05;;
8353;SDS011;4656;48.090;11.498;2024-03-08T01:40:11;19.73;;;11.52;;
8353;SDS011;4656;48.090;11.498;2024-03-08T01:42:13;17.92;;;10.77;;
8353;SDS011;4656;48.090;11.498;2024-03-08T01:44:15;20.92;;;11.30;;
8353;SDS011;4656;48.090;11.498;2024-03-08T01:46:18;22.35;;;11.60;;
8353;SDS011;4656;48.090;11.498;2024-03-08T01:48:19;22.15;;;11.63;;
8353;SDS011;4656;48.090;11.498;2024-03-08T01:50:23;19.35;;;11.65;;
8353;SDS011;4656;48.090;11.498;2024-03-08T01:52:26;20.20;;;12.02;;
8353;SDS011;4656;48.090;11.498;2024-03-08T01:54:29;19.55;;;11.05;;
8353;SDS011;4656;48.090;11.498;2024-03-08T01:56:32;20.50;;;11.57;;
8353;SDS011;4656;48.090;11.498;2024-03-08T01:58:34;20.00;;;11.52;;
8353;SDS011;4656;48.090;11.498;2024-03-08T02:00:37;19.77;;;10.98;;
8353;SDS011;4656;48.090;11.498;2024-03-08T02:02:40;20.45;;;11.93;;
8353;SDS011;4656;48.090;11.498;2024-03-08T02:04:44;21.98;;;11.75;;
8353;SDS011;4656;48.090;11.498;2024-03-08T02:06:46;20.80;;;12.43;;
8353;SDS011;4656;48.090;11.498;2024-03-08T02:08:49;23.45;;;12.52;;
8353;SDS011;4656;48.090;11.498;2024-03-08T02:10:52;20.27;;;11.50;;
8353;SDS011;4656;48.090;11.498;2024-03-08T02:12:54;22.48;;;11.93;;
8353;SDS011;4656;48.090;11.498;2024-03-08T02:14:57;23.17;;;12.43;;
8353;SDS011;4656;48.090;11.498;2024-03-08T02:17:00;21.73;;;12.05;;
8353;SDS011;4656;48.090;11.498;2024-03-08T02:19:02;20.07;;;11.47;;
8353;SDS011;4656;48.090;11.498;2024-03-08T02:21:06;22.70;;;12.20;;
8353;SDS011;4656;48.090;11.498;2024-03-08T02:23:08;22.20;;;11.48;;
8353;SDS011;4656;48.090;11.498;2024-03-08T02:25:10;23.00;;;12.15;;
8353;SDS011;4656;48.090;11.498;2024-03-08T02:27:13;18.98;;;11.43;;
8353;SDS011;4656;48.090;11.498;2024-03-08T02:29:14;20.50;;;12.57;;
8353;SDS011;4656;48.090;11.498;2024-03-08T02:31:16;22.60;;;12.45;;
8353;SDS011;4656;48.090;11.498;2024-03-08T02:33:18;21.40;;;12.13;;
8353;SDS011;4656;48.090;11.498;2024-03-08T02:35:19;20.67;;;11.70;;
8353;SDS011;4656;48.090;11.498;2024-03-08T02:37:23;18.25;;;11.23;;
8353;SDS011;4656;48.090;11.498;2024-03-08T02:39:24;20.40;;;11.40;;
8353;SDS011;4656;48.090;11.498;2024-03-08T02:41:27;21.38;;;11.88;;
8353;SDS011;4656;48.090;11.498;2024-03-08T02:43:29;22.13;;;11.10;;
8353;SDS011;4656;48.090;11.498;2024-03-08T02:45:31;20.25;;;11.13;;
8353;SDS011;4656;48.090;11.498;2024-03-08T02:47:35;24.10;;;12.95;;
8353;SDS011;4656;48.090;11.498;2024-03-08T02:49:37;22.15;;;11.77;;
8353;SDS011;4656;48.090;11.498;2024-03-08T02:51:39;23.85;;;12.60;;
8353;SDS011;4656;48.090;11.498;2024-03-08T02:53:42;20.98;;;11.70;;
8353;SDS011;4656;48.090;11.498;2024-03-08T02:55:45;22.35;;;11.98;;
8353;SDS011;4656;48.090;11.498;2024-03-08T02:57:46;19.50;;;12.35;;
8353;SDS011;4656;48.090;11.498;2024-03-08T02:59:48;22.73;;;12.02;;
8353;SDS011;4656;48.090;11.498;2024-03-08T03:01:51;21.65;;;12.52;;
8353;SDS011;4656;48.090;11.498;2024-03-08T03:03:52;24.67;;;12.60;;
8353;SDS011;4656;48.090;11.498;2024-03-08T03:05:54;21.48;;;12.60;;
8353;SDS011;4656;48.090;11.498;2024-03-08T03:07:56;22.90;;;12.85;;
8353;SDS011;4656;48.090;11.498;2024-03-08T03:10:00;20.80;;;11.63;;
8353;SDS011;4656;48.090;11.498;2024-03-08T03:12:02;19.50;;;11.13;;
8353;SDS011;4656;48.090;11.498;2024-03-08T03:14:04;21.33;;;11.60;;
8353;SDS011;4656;48.090;11.498;2024-03-08T03:16:09;21.02;;;12.23;;
8353;SDS011;4656;48.090;11.498;2024-03-08T03:18:11;21.25;;;12.35;;
8353;SDS011;4656;48.090;11.498;2024-03-08T03:20:13;20.67;;;12.02;;
8353;SDS011;4656;48.090;11.498;2024-03-08T03:22:22;22.50;;;12.85;;
8353;SDS011;4656;48.090;11.498;2024-03-08T03:24:25;23.88;;;12.40;;
8353;SDS011;4656;48.090;11.498;2024-03-08T03:26:30;23.45;;;12.98;;
8353;SDS011;4656;48.090;11.498;2024-03-08T03:28:33;22.27;;;11.75;;
8353;SDS011;4656;48.090;11.498;2024-03-08T03:30:35;20.65;;;11.77;;
8353;SDS011;4656;48.090;11.498;2024-03-08T03:32:40;21.20;;;11.70;;
8353;SDS011;4656;48.090;11.498;2024-03-08T03:34:47;22.85;;;12.50;;
8353;SDS011;4656;48.090;11.498;2024-03-08T03:36:49;20.83;;;12.57;;
8353;SDS011;4656;48.090;11.498;2024-03-08T03:38:51;21.17;;;12.10;;
8353;SDS011;4656;48.090;11.498;2024-03-08T03:41:04;21.08;;;11.43;;
8353;SDS011;4656;48.090;11.498;2024-03-08T03:43:11;21.57;;;11.27;;
8353;SDS011;4656;48.090;11.498;2024-03-08T03:45:13;20.92;;;12.15;;
8353;SDS011;4656;48.090;11.498;2024-03-08T03:47:20;20.75;;;12.15;;
8353;SDS011;4656;48.090;11.498;2024-03-08T03:49:22;21.73;;;12.00;;
8353;SDS011;4656;48.090;11.498;2024-03-08T03:51:23;22.10;;;11.77;;
8353;SDS011;4656;48.090;11.498;2024-03-08T03:53:26;21.02;;;11.90;;
8353;SDS011;4656;48.090;11.498;2024-03-08T03:55:28;22.38;;;11.60;;
8353;SDS011;4656;48.090;11.498;2024-03-08T03:57:30;24.48;;;12.82;;
8353;SDS011;4656;48.090;11.498;2024-03-08T03:59:32;23.48;;;12.93;;
8353;SDS011;4656;48.090;11.498;2024-03-08T04:01:34;22.80;;;12.23;;
8353;SDS011;4656;48.090;11.498;2024-03-08T04:03:37;21.45;;;11.95;;
8353;SDS011;4656;48.090;11.498;2024-03-08T04:05:39;23.73;;;12.85;;
8353;SDS011;4656;48.090;11.498;2024-03-08T04:07:41;22.15;;;12.18;;
8353;SDS011;4656;48.090;11.498;2024-03-08T04:09:44;20.67;;;11.30;;
8353;SDS011;4656;48.090;11.498;2024-03-08T04:11:45;22.63;;;12.00;;
8353;SDS011;4656;48.090;11.498;2024-03-08T04:13:47;22.00;;;12.27;;
8353;SDS011;4656;48.090;11.498;2024-03-08T04:15:50;23.20;;;12.75;;
8353;SDS011;4656;48.090;11.498;2024-03-08T04:17:52;23.70;;;12.60;;
8353;SDS011;4656;48.090;11.498;2024-03-08T04:19:55;21.70;;;11.90;;
8353;SDS011;4656;48.090;11.498;2024-03-08T04:21:57;25.13;;;11.95;;
8353;SDS011;4656;48.090;11.498;2024-03-08T04:24:00;20.77;;;12.63;;
8353;SDS011;4656;48.090;11.498;2024-03-08T04:26:02;22.88;;;12.32;;
8353;SDS011;4656;48.090;11.498;2024-03-08T04:28:05;24.00;;;12.15;;
8353;SDS011;4656;48.090;11.498;2024-03-08T04:30:07;21.27;;;12.00;;
8353;SDS011;4656;48.090;11.498;2024-03-08T04:32:11;23.83;;;13.07;;
8353;SDS011;4656;48.090;11.498;2024-03-08T04:34:13;26.35;;;13.10;;
8353;SDS011;4656;48.090;11.498;2024-03-08T04:36:15;23.48;;;13.02;;
8353;SDS011;4656;48.090;11.498;2024-03-08T04:38:17;21.17;;;12.32;;
8353;SDS011;4656;48.090;11.498;2024-03-08T04:40:19;24.20;;;12.85;;
8353;SDS011;4656;48.090;11.498;2024-03-08T04:42:22;26.13;;;13.73;;
8353;SDS011;4656;48.090;11.498;2024-03-08T04:44:24;21.85;;;12.70;;
8353;SDS011;4656;48.090;11.498;2024-03-08T04:46:26;24.08;;;14.07;;
8353;SDS011;4656;48.090;11.498;2024-03-08T04:48:30;23.33;;;12.30;;
8353;SDS011;4656;48.090;11.498;2024-03-08T04:50:32;25.63;;;13.15;;
8353;SDS011;4656;48.090;11.498;2024-03-08T04:52:34;27.13;;;14.23;;
8353;SDS011;4656;48.090;11.498;2024-03-08T04:54:36;26.80;;;13.38;;
8353;SDS011;4656;48.090;11.498;2024-03-08T04:56:37;23.95;;;13.25;;
8353;SDS011;4656;48.090;11.498;2024-03-08T04:58:41;25.80;;;13.70;;
8353;SDS011;4656;48.090;11.498;2024-03-08T05:00:43;28.52;;;13.98;;
8353;SDS011;4656;48.090;11.498;2024-03-08T05:02:45;24.33;;;13.57;;
8353;SDS011;4656;48.090;11.498;2024-03-08T05:04:49;24.27;;;13.68;;
8353;SDS011;4656;48.090;11.498;2024-03-08T05:06:51;25.00;;;13.73;;
8353;SDS011;4656;48.090;11.498;2024-03-08T05:08:53;23.92;;;13.57;;
8353;SDS011;4656;48.090;11.498;2024-03-08T05:10:55;22.30;;;13.18;;
8353;SDS011;4656;48.090;11.498;2024-03-08T05:12:58;24.13;;;13.57;;
8353;SDS011;4656;48.090;11.498;2024-03-08T05:15:00;23.80;;;13.55;;
8353;SDS011;4656;48.090;11.498;2024-03-08T05:17:02;26.30;;;14.18;;
8353;SDS011;4656;48.090;11.498;2024-03-08T05:19:07;27.42;;;13.95;;
8353;SDS011;4656;48.090;11.498;2024-03-08T05:21:09;26.45;;;14.20;;
8353;SDS011;4656;48.090;11.498;2024-03-08T05:23:11;28.67;;;14.35;;
8353;SDS011;4656;48.090;11.498;2024-03-08T05:25:13;25.55;;;13.73;;
8353;SDS011;4656;48.090;11.498;2024-03-08T05:27:18;28.05;;;13.70;;
8353;SDS011;4656;48.090;11.498;2024-03-08T05:29:19;25.27;;;13.18;;
8353;SDS011;4656;48.090;11.498;2024-03-08T05:31:21;27.65;;;14.45;;
8353;SDS011;4656;48.090;11.498;2024-03-08T05:33:22;27.08;;;14.07;;
8353;SDS011;4656;48.090;11.498;2024-03-08T05:35:25;23.15;;;13.27;;
8353;SDS011;4656;48.090;11.498;2024-03-08T05:37:28;23.88;;;13.90;;
8353;SDS011;4656;48.090;11.498;2024-03-08T05:39:31;24.48;;;13.95;;
8353;SDS011;4656;48.090;11.498;2024-03-08T05:41:33;27.00;;;14.60;;
8353;SDS011;4656;48.090;11.498;2024-03-08T05:43:35;24.83;;;13.93;;
8353;SDS011;4656;48.090;11.498;2024-03-08T05:45:38;25.45;;;13.57;;
8353;SDS011;4656;48.090;11.498;2024-03-08T05:47:40;23.52;;;14.10;;
8353;SDS011;4656;48.090;11.498;2024-03-08T05:49:41;21.33;;;13.30;;
8353;SDS011;4656;48.090;11.498;2024-03-08T05:51:45;27.83;;;14.38;;
8353;SDS011;4656;48.090;11.498;2024-03-08T05:53:49;24.83;;;14.23;;
8353;SDS011;4656;48.090;11.498;2024-03-08T05:55:53;24.48;;;14.07;;
8353;SDS011;4656;48.090;11.498;2024-03-08T05:57:55;24.98;;;13.98;;
8353;SDS011;4656;48.090;11.498;2024-03-08T05:59:56;23.98;;;14.00;;
8353;SDS011;4656;48.090;11.498;2024-03-08T06:01:58;26.02;;;13.93;;
8353;SDS011;4656;48.090;11.498;2024-03-08T06:04:01;25.70;;;13.98;;
8353;SDS011;4656;48.090;11.498;2024-03-08T06:06:03;25.25;;;13.75;;
8353;SDS011;4656;48.090;11.498;2024-03-08T06:08:05;22.35;;;13.27;;
8353;SDS011;4656;48.090;11.498;2024-03-08T06:10:09;24.33;;;13.68;;
8353;SDS011;4656;48.090;11.498;2024-03-08T06:12:13;24.77;;;13.13;;
8353;SDS011;4656;48.090;11.498;2024-03-08T06:14:18;24.48;;;14.05;;
8353;SDS011;4656;48.090;11.498;2024-03-08T06:16:20;24.43;;;13.90;;
8353;SDS011;4656;48.090;11.498;2024-03-08T06:18:23;22.95;;;13.93;;
8353;SDS011;4656;48.090;11.498;2024-03-08T06:20:26;23.83;;;13.27;;
8353;SDS011;4656;48.090;11.498;2024-03-08T06:22:28;26.25;;;13.82;;
8353;SDS011;4656;48.090;11.498;2024-03-08T06:24:30;26.80;;;14.18;;
8353;SDS011;4656;48.090;11.498;2024-03-08T06:26:35;27.13;;;13.75;;
8353;SDS011;4656;48.090;11.498;2024-03-08T06:28:37;25.08;;;13.48;;
8353;SDS011;4656;48.090;11.498;2024-03-08T06:30:38;26.05;;;13.43;;
8353;SDS011;4656;48.090;11.498;2024-03-08T06:32:41;23.40;;;13.55;;
8353;SDS011;4656;48.090;11.498;2024-03-08T06:34:43;23.83;;;12.70;;
8353;SDS011;4656;48.090;11.498;2024-03-08T06:36:45;24.63;;;13.77;;
8353;SDS011;4656;48.090;11.498;2024-03-08T06:38:47;25.35;;;14.40;;
8353;SDS011;4656;48.090;11.498;2024-03-08T06:40:49;23.88;;;13.57;;
8353;SDS011;4656;48.090;11.498;2024-03-08T06:42:53;26.38;;;14.00;;
8353;SDS011;4656;48.090;11.498;2024-03-08T06:44:55;24.65;;;13.48;;
8353;SDS011;4656;48.090;11.498;2024-03-08T06:47:04;24.25;;;13.90;;
8353;SDS011;4656;48.090;11.498;2024-03-08T06:49:06;28.30;;;13.95;;
8353;SDS011;4656;48.090;11.498;2024-03-08T06:51:10;23.40;;;13.45;;
8353;SDS011;4656;48.090;11.498;2024-03-08T06:53:14;23.98;;;13.77;;
8353;SDS011;4656;48.090;11.498;2024-03-08T06:55:19;25.50;;;14.05;;
8353;SDS011;4656;48.090;11.498;2024-03-08T06:57:21;22.75;;;13.18;;
8353;SDS011;4656;48.090;11.498;2024-03-08T06:59:24;25.48;;;14.27;;
8353;SDS011;4656;48.090;11.498;2024-03-08T07:01:26;25.42;;;13.65;;
8353;SDS011;4656;48.090;11.498;2024-03-08T07:03:31;22.00;;;12.95;;
8353;SDS011;4656;48.090;11.498;2024-03-08T07:05:34;22.90;;;13.30;;
8353;SDS011;4656;48.090;11.498;2024-03-08T07:07:36;23.02;;;13.23;;
8353;SDS011;4656;48.090;11.498;2024-03-08T07:09:38;21.88;;;12.57;;
8353;SDS011;4656;48.090;11.498;2024-03-08T07:11:42;25.20;;;13.18;;
8353;SDS011;4656;48.090;11.498;2024-03-08T07:13:44;23.58;;;13.73;;
8353;SDS011;4656;48.090;11.498;2024-03-08T07:15:47;26.75;;;14.20;;
8353;SDS011;4656;48.090;11.498;2024-03-08T07:17:49;24.58;;;14.20;;
8353;SDS011;4656;48.090;11.498;2024-03-08T07:19:52;23.70;;;13.25;;
8353;SDS011;4656;48.090;11.498;2024-03-08T07:21:55;23.58;;;12.80;;
8353;SDS011;4656;48.090;11.498;2024-03-08T07:23:57;23.60;;;13.45;;
8353;SDS011;4656;48.090;11.498;2024-03-08T07:26:09;24.88;;;13.48;;
8353;SDS011;4656;48.090;11.498;2024-03-08T07:28:12;24.73;;;13.85;;
8353;SDS011;4656;48.090;11.498;2024-03-08T07:30:14;25.33;;;13.70;;
8353;SDS011;4656;48.090;11.498;2024-03-08T07:32:38;24.33;;;12.67;;
8353;SDS011;4656;48.090;11.498;2024-03-08T07:34:41;23.00;;;12.50;;
8353;SDS011;4656;48.090;11.498;2024-03-08T07:36:43;21.25;;;11.80;;
8353;SDS011;4656;48.090;11.498;2024-03-08T07:38:45;23.27;;;14.02;;
8353;SDS011;4656;48.090;11.498;2024-03-08T07:40:47;24.05;;;13.02;;
8353;SDS011;4656;48.090;11.498;2024-03-08T07:42:49;26.30;;;13.37;;
8353;SDS011;4656;48.090;11.498;2024-03-08T07:44:51;22.90;;;12.45;;
8353;SDS011;4656;48.090;11.498;2024-03-08T07:46:54;24.80;;;14.25;;
8353;SDS011;4656;48.090;11.498;2024-03-08T07:48:58;28.80;;;13.50;;
8353;SDS011;4656;48.090;11.498;2024-03-08T07:51:00;25.60;;;13.32;;
8353;SDS011;4656;48.090;11.498;2024-03-08T07:53:03;24.75;;;13.85;;
8353;SDS011;4656;48.090;11.498;2024-03-08T07:55:06;24.83;;;13.80;;
8353;SDS011;4656;48.090;11.498;2024-03-08T07:57:10;23.13;;;12.63;;
8353;SDS011;4656;48.090;11.498;2024-03-08T07:59:12;25.55;;;14.02;;
8353;SDS011;4656;48.090;11.498;2024-03-08T08:01:17;24.30;;;13.50;;
8353;SDS011;4656;48.090;11.498;2024-03-08T08:03:19;26.05;;;13.77;;
8353;SDS011;4656;48.090;11.498;2024-03-08T08:05:23;22.88;;;13.27;;
8353;SDS011;4656;48.090;11.498;2024-03-08T08:07:26;23.90;;;13.00;;
8353;SDS011;4656;48.090;11.498;2024-03-08T08:09:28;21.00;;;12.55;;
8353;SDS011;4656;48.090;11.498;2024-03-08T08:11:34;25.05;;;13.40;;
8353;SDS011;4656;48.090;11.498;2024-03-08T08:13:36;21.77;;;12.32;;
8353;SDS011;4656;48.090;11.498;2024-03-08T08:15:39;22.83;;;13.02;;
8353;SDS011;4656;48.090;11.498;2024-03-08T08:17:40;24.73;;;13.37;;
8353;SDS011;4656;48.090;11.498;2024-03-08T08:19:42;23.70;;;12.75;;
8353;SDS011;4656;48.090;11.498;2024-03-08T08:21:45;22.13;;;13.05;;
8353;SDS011;4656;48.090;11.498;2024-03-08T08:23:47;22.98;;;12.93;;
8353;SDS011;4656;48.090;11.498;2024-03-08T08:25:48;22.13;;;13.27;;
8353;SDS011;4656;48.090;11.498;2024-03-08T08:27:50;22.55;;;12.68;;
8353;SDS011;4656;48.090;11.498;2024-03-08T08:29:52;18.80;;;11.70;;
8353;SDS011;4656;48.090;11.498;2024-03-08T08:31:57;20.33;;;11.55;;
8353;SDS011;4656;48.090;11.498;2024-03-08T08:33:59;20.20;;;12.25;;
8353;SDS011;4656;48.090;11.498;2024-03-08T08:36:03;19.73;;;11.32;;
8353;SDS011;4656;48.090;11.498;2024-03-08T08:38:07;17.75;;;11.43;;
8353;SDS011;4656;48.090;11.498;2024-03-08T08:40:10;19.73;;;12.35;;
8353;SDS011;4656;48.090;11.498;2024-03-08T08:42:14;18.35;;;12.35;;
8353;SDS011;4656;48.090;11.498;2024-03-08T08:44:15;19.02;;;11.02;;
8353;SDS011;4656;48.090;11.498;2024-03-08T08:46:17;20.17;;;11.88;;
8353;SDS011;4656;48.090;11.498;2024-03-08T08:48:19;20.63;;;11.98;;
8353;SDS011;4656;48.090;11.498;2024-03-08T08:50:22;20.20;;;11.23;;
8353;SDS011;4656;48.090;11.498;2024-03-08T08:52:24;19.40;;;11.65;;
8353;SDS011;4656;48.090;11.498;2024-03-08T08:54:27;18.27;;;11.10;;
8353;SDS011;4656;48.090;11.498;2024-03-08T08:56:29;18.08;;;10.88;;
8353;SDS011;4656;48.090;11.498;2024-03-08T08:58:31;19.88;;;11.68;;
8353;SDS011;4656;48.090;11.498;2024-03-08T09:00:33;18.42;;;11.45;;
8353;SDS011;4656;48.090;11.498;2024-03-08T09:02:36;19.73;;;11.77;;
8353;SDS011;4656;48.090;11.498;2024-03-08T09:04:38;23.33;;;13.10;;
8353;SDS011;4656;48.090;11.498;2024-03-08T09:06:40;18.08;;;11.90;;
8353;SDS011;4656;48.090;11.498;2024-03-08T09:08:41;17.15;;;10.93;;
8353;SDS011;4656;48.090;11.498;2024-03-08T09:10:45;15.40;;;10.48;;
8353;SDS011;4656;48.090;11.498;2024-03-08T09:12:48;15.45;;;10.43;;
8353;SDS011;4656;48.090;11.498;2024-03-08T09:14:50;15.80;;;10.07;;
8353;SDS011;4656;48.090;11.498;2024-03-08T09:16:53;14.38;;;9.95;;
8353;SDS011;4656;48.090;11.498;2024-03-08T09:18:54;14.93;;;9.70;;
8353;SDS011;4656;48.090;11.498;2024-03-08T09:20:57;14.27;;;9.25;;
8353;SDS011;4656;48.090;11.498;2024-03-08T09:22:58;12.20;;;8.90;;
8353;SDS011;4656;48.090;11.498;2024-03-08T09:25:00;14.45;;;9.73;;
8353;SDS011;4656;48.090;11.498;2024-03-08T09:27:04;13.93;;;9.32;;
8353;SDS011;4656;48.090;11.498;2024-03-08T09:29:06;13.95;;;9.57;;
8353;SDS011;4656;48.090;11.498;2024-03-08T09:31:10;12.00;;;8.52;;
8353;SDS011;4656;48.090;11.498;2024-03-08T09:33:12;12.60;;;8.90;;
8353;SDS011;4656;48.090;11.498;2024-03-08T09:35:19;14.20;;;8.48;;
8353;SDS011;4656;48.090;11.498;2024-03-08T09:37:21;12.95;;;9.02;;
8353;SDS011;4656;48.090;11.498;2024-03-08T09:39:23;11.40;;;8.48;;
8353;SDS011;4656;48.090;11.498;2024-03-08T09:41:26;10.57;;;7.80;;
8353;SDS011;4656;48.090;11.498;2024-03-08T09:43:29;12.63;;;8.90;;
8353;SDS011;4656;48.090;11.498;2024-03-08T09:45:32;12.53;;;8.50;;
8353;SDS011;4656;48.090;11.498;2024-03-08T09:47:39;12.13;;;8.50;;
8353;SDS011;4656;48.090;11.498;2024-03-08T09:49:41;11.23;;;7.70;;
8353;SDS011;4656;48.090;11.498;2024-03-08T09:51:44;11.73;;;8.38;;
8353;SDS011;4656;48.090;11.498;2024-03-08T09:53:46;11.75;;;8.40;;
8353;SDS011;4656;48.090;11.498;2024-03-08T09:55:47;12.67;;;8.47;;
8353;SDS011;4656;48.090;11.498;2024-03-08T09:57:51;12.20;;;8.95;;
8353;SDS011;4656;48.090;11.498;2024-03-08T10:00:12;12.57;;;8.13;;
8353;SDS011;4656;48.090;11.498;2024-03-08T10:02:24;10.07;;;7.72;;
8353;SDS011;4656;48.090;11.498;2024-03-08T10:04:26;12.40;;;8.20;;
8353;SDS011;4656;48.090;11.498;2024-03-08T10:06:28;12.00;;;8.23;;
8353;SDS011;4656;48.090;11.498;2024-03-08T10:08:31;11.88;;;8.60;;
8353;SDS011;4656;48.090;11.498;2024-03-08T10:10:33;10.63;;;7.80;;
8353;SDS011;4656;48.090;11.498;2024-03-08T10:12:35;13.05;;;8.73;;
8353;SDS011;4656;48.090;11.498;2024-03-08T10:14:38;13.45;;;8.13;;
8353;SDS011;4656;48.090;11.498;2024-03-08T10:16:43;11.90;;;8.57;;
8353;SDS011;4656;48.090;11.498;2024-03-08T10:18:47;12.27;;;8.23;;
8353;SDS011;4656;48.090;11.498;2024-03-08T10:21:01;11.43;;;8.40;;
8353;SDS011;4656;48.090;11.498;2024-03-08T10:23:05;11.30;;;8.15;;
8353;SDS011;4656;48.090;11.498;2024-03-08T10:25:10;12.52;;;8.85;;
8353;SDS011;4656;48.090;11.498;2024-03-08T10:27:11;14.70;;;8.65;;
8353;SDS011;4656;48.090;11.498;2024-03-08T10:29:13;13.97;;;8.63;;
8353;SDS011;4656;48.090;11.498;2024-03-08T10:31:18;12.85;;;8.93;;
8353;SDS011;4656;48.090;11.498;2024-03-08T10:33:21;12.30;;;8.55;;
8353;SDS011;4656;48.090;11.498;2024-03-08T10:35:25;14.00;;;9.45;;
8353;SDS011;4656;48.090;11.498;2024-03-08T10:37:28;12.27;;;8.82;;
8353;SDS011;4656;48.090;11.498;2024-03-08T10:39:34;12.40;;;8.30;;
8353;SDS011;4656;48.090;11.498;2024-03-08T10:41:37;13.05;;;8.73;;
8353;SDS011;4656;48.090;11.498;2024-03-08T10:43:49;14.02;;;8.95;;
8353;SDS011;4656;48.090;11.498;2024-03-08T10:45:52;12.27;;;8.75;;
8353;SDS011;4656;48.090;11.498;2024-03-08T10:48:00;13.73;;;9.17;;
8353;SDS011;4656;48.090;11.498;2024-03-08T10:50:08;15.18;;;9.45;;
8353;SDS011;4656;48.090;11.498;2024-03-08T10:52:13;13.73;;;9.05;;
8353;SDS011;4656;48.090;11.498;2024-03-08T10:54:17;12.15;;;8.65;;
8353;SDS011;4656;48.090;11.498;2024-03-08T10:56:20;14.27;;;8.73;;
8353;SDS011;4656;48.090;11.498;2024-03-08T10:58:23;12.20;;;8.90;;
8353;SDS011;4656;48.090;11.498;2024-03-08T11:00:27;12.68;;;8.63;;
8353;SDS011;4656;48.090;11.498;2024-03-08T11:02:29;12.93;;;8.50;;
8353;SDS011;4656;48.090;11.498;2024-03-08T11:04:32;11.77;;;8.45;;
8353;SDS011;4656;48.090;11.498;2024-03-08T11:06:42;13.00;;;8.68;;
8353;SDS011;4656;48.090;11.498;2024-03-08T11:08:47;14.52;;;9.63;;
8353;SDS011;4656;48.090;11.498;2024-03-08T11:10:50;12.13;;;8.73;;
8353;SDS011;4656;48.090;11.498;2024-03-08T11:12:54;13.80;;;8.57;;
8353;SDS011;4656;48.090;11.498;2024-03-08T11:14:59;11.52;;;8.35;;
8353;SDS011;4656;48.090;11.498;2024-03-08T11:17:04;11.85;;;8.15;;
8353;SDS011;4656;48.090;11.498;2024-03-08T11:19:22;12.10;;;8.43;;
8353;SDS011;4656;48.090;11.498;2024-03-08T11:21:25;11.77;;;8.10;;
8353;SDS011;4656;48.090;11.498;2024-03-08T11:23:28;12.20;;;8.57;;
8353;SDS011;4656;48.090;11.498;2024-03-08T11:25:35;11.60;;;7.63;;
8353;SDS011;4656;48.090;11.498;2024-03-08T11:27:39;14.03;;;8.90;;
8353;SDS011;4656;48.090;11.498;2024-03-08T11:30:04;13.20;;;8.30;;
8353;SDS011;4656;48.090;11.498;2024-03-08T11:32:11;10.95;;;7.97;;
8353;SDS011;4656;48.090;11.498;2024-03-08T11:34:15;12.75;;;8.15;;
8353;SDS011;4656;48.090;11.498;2024-03-08T11:36:22;11.48;;;8.00;;
8353;SDS011;4656;48.090;11.498;2024-03-08T11:38:24;11.00;;;8.02;;
8353;SDS011;4656;48.090;11.498;2024-03-08T11:40:28;12.23;;;7.53;;
8353;SDS011;4656;48.090;11.498;2024-03-08T11:42:35;12.23;;;8.07;;
8353;SDS011;4656;48.090;11.498;2024-03-08T11:44:37;10.57;;;7.73;;
8353;SDS011;4656;48.090;11.498;2024-03-08T11:46:44;11.43;;;7.93;;
8353;SDS011;4656;48.090;11.498;2024-03-08T11:48:47;10.57;;;7.57;;
8353;SDS011;4656;48.090;11.498;2024-03-08T11:50:58;10.43;;;7.63;;
8353;SDS011;4656;48.090;11.498;2024-03-08T11:53:01;11.02;;;7.15;;
8353;SDS011;4656;48.090;11.498;2024-03-08T11:55:04;10.47;;;7.60;;
8353;SDS011;4656;48.090;11.498;2024-03-08T11:57:08;12.32;;;7.72;;
8353;SDS011;4656;48.090;11.498;2024-03-08T11:59:11;10.98;;;7.55;;
8353;SDS011;4656;48.090;11.498;2024-03-08T12:01:14;9.52;;;7.03;;
8353;SDS011;4656;48.090;11.498;2024-03-08T12:03:17;11.52;;;7.50;;
8353;SDS011;4656;48.090;11.498;2024-03-08T12:05:20;11.32;;;7.35;;
8353;SDS011;4656;48.090;11.498;2024-03-08T12:07:22;11.73;;;8.07;;
8353;SDS011;4656;48.090;11.498;2024-03-08T12:09:24;9.63;;;7.32;;
8353;SDS011;4656;48.090;11.498;2024-03-08T12:11:26;11.00;;;7.68;;
8353;SDS011;4656;48.090;11.498;2024-03-08T12:13:30;12.35;;;8.13;;
8353;SDS011;4656;48.090;11.498;2024-03-08T12:15:33;11.85;;;7.82;;